^^
Station Historical Data
Daily Summary for October 7, 2017 Units:  English    Metric   Both
« Previous Day
Next Day »
Daily Weekly Monthly Yearly Custom
  High: Low: Average:
Temperature: 79.6 °F 63.0 °F 70.4 °F
Dew Point: 67.3 °F 61.2 °F 65.3 °F
Humidity: 97% 61% 85%
Wind Speed: 7.0mph 0.0mph 1.6mph
Wind Gust: 13.0mph - -
Wind- - SSW
Pressure: 30.15 in 30.02 in -
Precipitation: 0.00 in    
Historical Graphs
 
 
Tabular Data for October 7, 2017
Time Temperature Dew Point Pressure Wind Wind Speed Wind Gust Humidity Rainfall Rate (Hourly) Conditions
00:00 67.0 °F 64.6 °F 30.10 in Calm   1.0 mph 92% 0.00 in RA
00:15 66.8 °F 64.4 °F 30.09 in Calm   1.0 mph 92% 0.00 in CLR
00:30 66.3 °F 64.2 °F 30.09 in Calm   2.0 mph 93% 0.00 in CLR
00:45 66.1 °F 64.0 °F 30.10 in Calm   2.0 mph 93% 0.00 in CLR
01:00 65.7 °F 63.6 °F 30.10 in Calm   1.0 mph 93% 0.00 in CLR
02:15 65.1 °F 63.6 °F 30.10 in Calm   1.0 mph 95% 0.00 in CLR
02:30 64.6 °F 63.2 °F 30.10 in Calm   1.0 mph 95% 0.00 in CLR
02:45 64.4 °F 62.6 °F 30.10 in Calm   2.0 mph 94% 0.00 in CLR
03:00 64.0 °F 62.3 °F 30.10 in NNW 1.0 mph 3.0 mph 94% 0.00 in CLR
03:15 63.8 °F 61.7 °F 30.10 in Calm   2.0 mph 93% 0.00 in CLR
03:30 63.5 °F 61.4 °F 30.10 in Calm   3.0 mph 93% 0.00 in CLR
03:45 63.3 °F 61.5 °F 30.10 in Calm   3.0 mph 94% 0.00 in CLR
04:00 63.2 °F 61.4 °F 30.10 in Calm   2.0 mph 94% 0.00 in CLR
04:15 63.0 °F 61.2 °F 30.11 in Calm   1.0 mph 94% 0.00 in BKN
04:30 63.0 °F 61.5 °F 30.11 in Calm   2.0 mph 95% 0.00 in BKN
04:45 63.3 °F 61.8 °F 30.11 in Calm   2.0 mph 95% 0.00 in BKN
05:00 63.5 °F 62.3 °F 30.11 in NW 1.0 mph 3.0 mph 96% 0.00 in BKN
05:15 63.7 °F 62.5 °F 30.11 in Calm   2.0 mph 96% 0.00 in BKN
05:30 63.9 °F 62.8 °F 30.11 in Calm   3.0 mph 96% 0.00 in BKN
05:45 64.1 °F 62.9 °F 30.12 in Calm   2.0 mph 96% 0.00 in BKN
06:00 64.3 °F 63.4 °F 30.11 in Calm   2.0 mph 97% 0.00 in BKN
06:15 64.3 °F 63.4 °F 30.11 in Calm   1.0 mph 97% 0.00 in CLR
06:30 64.4 °F 63.5 °F 30.12 in Calm     97% 0.00 in CLR
06:45 64.5 °F 63.7 °F 30.11 in Calm   1.0 mph 97% 0.00 in CLR
07:00 64.6 °F 63.7 °F 30.11 in Calm     97% 0.00 in CLR
07:30 64.8 °F 63.9 °F 30.11 in Calm   1.0 mph 97% 0.00 in CLR
07:45 64.8 °F 64.0 °F 30.12 in Calm   1.0 mph 97% 0.00 in CLR
08:00 65.1 °F 64.2 °F 30.13 in Calm   1.0 mph 97% 0.00 in CLR
08:15 65.5 °F 64.6 °F 30.13 in Calm   1.0 mph 97% 0.00 in CLR
08:30 65.8 °F 65.0 °F 30.14 in Calm   2.0 mph 97% 0.00 in CLR
08:45 66.3 °F 65.4 °F 30.13 in Calm   3.0 mph 97% 0.00 in CLR
09:00 66.9 °F 66.0 °F 30.14 in Calm   4.0 mph 97% 0.00 in CLR
09:15 67.7 °F 66.5 °F 30.15 in SW 1.0 mph 5.0 mph 96% 0.00 in CLR
09:30 68.6 °F 66.5 °F 30.15 in SSE 1.0 mph 4.0 mph 93% 0.00 in CLR
09:45 69.4 °F 66.3 °F 30.14 in SSW 1.0 mph 4.0 mph 90% 0.00 in CLR
10:00 69.9 °F 66.2 °F 30.14 in NW 1.0 mph 4.0 mph 88% 0.00 in CLR
10:15 70.6 °F 66.5 °F 30.14 in Calm   6.0 mph 87% 0.00 in BKN
10:30 70.8 °F 66.7 °F 30.13 in Calm   4.0 mph 87% 0.00 in BKN
10:45 71.0 °F 67.0 °F 30.13 in WSW 2.0 mph 5.0 mph 87% 0.00 in BKN
11:00 71.2 °F 66.5 °F 30.14 in WSW 3.0 mph 5.0 mph 85% 0.00 in BKN
11:15 72.1 °F 67.0 °F 30.13 in WNW 1.0 mph 4.0 mph 84% 0.00 in BKN
11:30 73.1 °F 67.3 °F 30.13 in SSW 1.0 mph 7.0 mph 82% 0.00 in BKN
11:45 74.2 °F 66.9 °F 30.13 in SW 2.0 mph 7.0 mph 78% 0.00 in BKN
12:00 74.9 °F 66.4 °F 30.12 in SSW 2.0 mph 9.0 mph 75% 0.00 in BKN
12:15 75.6 °F 66.7 °F 30.12 in SE 2.0 mph 9.0 mph 74% 0.00 in FEW
12:30 76.4 °F 66.3 °F 30.11 in SSW 2.0 mph 8.0 mph 71% 0.00 in FEW
12:45 77.6 °F 66.6 °F 30.10 in Calm   7.0 mph 69% 0.00 in FEW
13:00 77.9 °F 66.0 °F 30.10 in SSW 5.0 mph 10.0 mph 67% 0.00 in FEW
13:15 78.2 °F 66.7 °F 30.09 in SSW 5.0 mph 9.0 mph 68% 0.00 in FEW
13:30 79.4 °F 66.6 °F 30.08 in SW 1.0 mph 7.0 mph 65% 0.00 in FEW
13:45 78.6 °F 65.8 °F 30.08 in South 2.0 mph 10.0 mph 65% 0.00 in FEW
14:00 78.8 °F 66.0 °F 30.07 in SW 1.0 mph 6.0 mph 65% 0.00 in FEW
14:15 78.7 °F 66.0 °F 30.07 in SW 3.0 mph 7.0 mph 65% 0.00 in FEW
14:30 78.5 °F 65.3 °F 30.07 in SSW 2.0 mph 7.0 mph 64% 0.00 in FEW
14:45 78.0 °F 64.8 °F 30.06 in SW 3.0 mph 8.0 mph 64% 0.00 in FEW
15:00 78.1 °F 64.9 °F 30.06 in SW 3.0 mph 8.0 mph 64% 0.00 in FEW
15:15 78.5 °F 65.3 °F 30.06 in WSW 2.0 mph 12.0 mph 64% 0.00 in FEW
15:30 78.9 °F 65.2 °F 30.06 in SW 3.0 mph 12.0 mph 63% 0.00 in FEW
15:45 79.4 °F 64.8 °F 30.06 in SSE 7.0 mph 12.0 mph 61% 0.00 in FEW
16:00 79.6 °F 65.9 °F 30.05 in South 3.0 mph 10.0 mph 63% 0.00 in FEW
16:15 78.4 °F 67.0 °F 30.05 in South 2.0 mph 12.0 mph 68% 0.00 in FEW
16:30 77.4 °F 67.2 °F 30.05 in South 2.0 mph 12.0 mph 71% 0.00 in FEW
16:45 76.5 °F 66.8 °F 30.05 in SSE 1.0 mph 13.0 mph 72% 0.00 in FEW
17:00 75.9 °F 66.6 °F 30.05 in SSE 3.0 mph 12.0 mph 73% 0.00 in FEW
17:15 75.6 °F 66.8 °F 30.04 in SSW 2.0 mph 7.0 mph 74% 0.00 in FEW
17:30 75.4 °F 66.9 °F 30.04 in SW 2.0 mph 9.0 mph 75% 0.00 in FEW
17:45 74.1 °F 66.4 °F 30.04 in SSW 3.0 mph 9.0 mph 77% 0.00 in FEW
18:00 73.4 °F 66.1 °F 30.04 in SW 2.0 mph 13.0 mph 78% 0.00 in FEW
18:15 72.8 °F 65.9 °F 30.03 in SW 2.0 mph 10.0 mph 79% 0.00 in FEW
18:30 72.4 °F 66.2 °F 30.04 in SW 2.0 mph 11.0 mph 81% 0.00 in FEW
18:45 72.1 °F 66.6 °F 30.04 in South 3.0 mph 12.0 mph 83% 0.00 in FEW
19:00 71.9 °F 66.5 °F 30.03 in South 3.0 mph 12.0 mph 83% 0.00 in FEW
19:15 71.7 °F 66.6 °F 30.03 in SSW 3.0 mph 12.0 mph 84% 0.00 in CLR
19:30 71.5 °F 66.8 °F 30.04 in SSW 5.0 mph 12.0 mph 85% 0.00 in CLR
20:00 70.8 °F 67.1 °F 30.04 in SW 6.0 mph 13.0 mph 88% 0.00 in CLR
20:15 70.5 °F 67.1 °F 30.04 in SSW 3.0 mph 9.0 mph 89% 0.00 in SCT
20:45 70.3 °F 67.2 °F 30.04 in SSW 2.0 mph 9.0 mph 90% 0.00 in SCT
21:00 70.3 °F 67.2 °F 30.05 in SSW 2.0 mph 10.0 mph 90% 0.00 in SCT
21:15 70.2 °F 67.1 °F 30.05 in SSW 1.0 mph 12.0 mph 90% 0.00 in BKN
21:30 70.1 °F 67.1 °F 30.05 in SSW 3.0 mph 10.0 mph 90% 0.00 in BKN
21:45 70.1 °F 67.0 °F 30.06 in South 3.0 mph 12.0 mph 90% 0.00 in BKN
22:00 70.3 °F 67.2 °F 30.05 in South 3.0 mph 9.0 mph 90% 0.00 in BKN
22:15 70.2 °F 66.8 °F 30.05 in South 2.0 mph 8.0 mph 89% 0.00 in BKN
22:30 70.2 °F 67.1 °F 30.04 in South 7.0 mph 13.0 mph 90% 0.00 in BKN
22:45 70.2 °F 67.1 °F 30.04 in SSW 2.0 mph 9.0 mph 90% 0.00 in BKN
23:00 69.9 °F 66.9 °F 30.04 in SSW 2.0 mph 9.0 mph 90% 0.00 in BKN
23:15 69.9 °F 66.8 °F 30.04 in SSW 2.0 mph 8.0 mph 90% 0.00 in BKN
23:30 70.2 °F 67.1 °F 30.03 in SSW 5.0 mph 10.0 mph 90% 0.00 in BKN
23:45 70.2 °F 67.1 °F 30.02 in SSW 1.0 mph 10.0 mph 90% 0.00 in BKN
TarryTown NY Weather
Compliments of Weather Underground - 1.5 mb